Terminal Aerodrome Forecast
Issued by NWS

Home | Current Version | Previous Version | Text Only | Print | Product List | Glossary On
Versions: 1 2 3 4 5 6 7 8 9 10 11 12 13
137
FTUS43 KOAX 230556
TAFSNY
TAF
KSNY 230556Z 2306/2406 36012KT P6SM OVC100
     FM230800 07015G23KT P6SM OVC014
     FM231000 08016G28KT 2SM BR OVC007
     FM231400 07016G24KT 2SM -SN BR OVC004
     FM232000 03017G28KT 1SM -SN BR OVC007=

USA.gov is the U.S. government's official web portal to all federal, state and local government web resources and services.